Martes, 21 de Octubre del 2014

portal contactenos mapa del sitio buscar Revisar Correo Corporativo

Reporte METAR Consolidado

|| Reporte TAF Consolidado ||

Informe METAR emitido cada hora.

METAR

ESTACIÓN

AEROPUERTO

HORA UTC

DESCRIPCIÓN

SLGM

Guayaramerín

10-49S|65-20W

13:00

SLGM 211300Z 19008KT 6000 TS VCSH SCT007 BKN015 FEW020CB OVC070 25/22 Q1014 A2997 HR85 CB/SH NE/W/NW=

SLRI

Riberalta

11-00S|66-04W

13:00

SLRI 211300Z 19010KT 1500 TSRA BKN004 FEW020CB OVC070 23/23 Q1016 A3002 HR99 CB TS SE/S/SW=

SLCO

Cobija

11-02S|68-47W

13:00

SLCO 211300Z 15006KT 6000 -RA SCT004 FEW020CB OVC070 23/22 Q1015 A3000 988.4 HR95 CB NW=

SLJO

San Joaquin

13-03S|64-39W

13:00

SLJO 211300Z 18006KT 7000 SCT080 BKN200 25/22 Q1013 A2993 HR84 FU RWY NML=

SLRA

San Ramón

13-15S|64-36W

13:00

SLRA 211300Z 14008KT 8000 BKN080 BKN200 26/21 Q1013 A2994 HR76 FU RWY NML=

SLMG

San Magdalena

13-15S|64-03W

13:00

SLMG 211300Z 14004KT 8000 NSC 27/22 Q1013 A2994 HR72 FU CI RWY NML=

SLBU

Baures

13-39S|63-42W

13:00

SLBU 211300Z 18008KT 8000 SCT080 BKN200 28/22 Q1015 A2997 HR69 FU RWY NML=

SLSA

Santa Ana de Yacuma

13-45S|65-26W

13:00

SLSA 211300Z 16008KT 9999 BKN080 25/20 Q1015 A2998 HR75 FU CI=

SLSR

Santa Rosa

14-04S|66-47W

13:00

SLSR 211300Z 18005KT 9999 BKN080 27/22 Q1013 A2992 HR75 RWY NML=

SLRY

Reyes

14-18S|67-21W

13:00

SLRY 211300Z 18006KT 9999 FEW040 BKN080 27/21 Q1027 A3005 HR60 RWY HUM OPR 1 000M=

SLRQ

Rurrenabaque

14-25S|67-29W

13:00

SLRQ 211300Z 12006KT 9999 FEW030 SCT070 BKN200 27/23 Q1016 A3002 HR78=

SLAP

Apolo

14-44S|68-24W

17:00

SLAPO 121700Z NIL=

SLTR

Trinidad

14-49S|64-54W

13:00

SLTR 211300Z 16007KT 9999 NSC 27/20 Q1015 A2999 997.1 HR63 FU AC/CI NOSIG=

SLSB

San Borja

14-51S|66-44W

13:00

SLSB 211300Z 19004KT 9999 BKN080 26/22 Q1016 A3001 FU HR81 RWY WET OPR C210=

SLSM

San Ignacio de Moxos

14-57S|65-38W

13:00

SLSM 211300Z 14008KT 8000 NSC 26/22 Q1014 A2996 HR75 CI RWY NML=

SLAS

Ascención de Guarayos

15-55S|63-09W

13:00

SLAS 211300Z 17010KT 9999 NSC 28/18 Q1016 A3002 HR53 RWY NML=

SLCP

Concepción

16-08S|62-01W

13:00

SLCP 211300Z 18012KT 9999 SCT070 25/19 Q1018 A3006 HR70 RWY NML =

SLLP

Internaciónal El Alto

16-08S|68-10W

13:00

SLLP 211300Z 28005KT 4000E VCFG FEW002 SCT010 OVC070 02/01 Q1040 A3071 629.4 P/INV VCFG NE/E/SE/S HR96 NOSIG=

SLJV

San Javier

16-16S|62-28W

13:00

SLJV 211300Z 00000KT 9999 NSC 22/19 Q1015 A2997 HR86 FU RWY NML =

SLTI

San Matías

16-20S|58-24W

13:00

SLTI 211300Z 00000KT 9999 BKN012 26/23 Q1021 A3015 HR88 RWY HUM OPR=

SLSI

San Ignacio de Velasco

16-23S|60-57W

13:00

SLSI 211300Z 18012KT 9999 NSC 24/20 Q1016 A3000 HR75 RWY NML=

SLCB

Cochabamba

17-25S|66-10W

13:00

SLCB 211300Z 00000KT 9000 FEW010 SCT023 BKN070 14/10 Q1030 A3044 755.8 HR76 ST BAJOS S/SW/W FU CI NOSIG=

SLCN

Charaña

17-35S|69-25W

-

Mensaje no Recibido

SLVR

Internaciónal Viru Viru

17-38S|63-08W

13:00

SLVR 211300Z 17013KT 9999 FEW080 SCT230 29/16 Q1017 A3005 HR45 NOSIG=

SLET

El Trompillo

17-48S|63-10W

13:00

SLET 211300Z 17015KT 9999 FEW023 SCT200 29/16 Q1016 A3002 HR45 NOSIG=

SLJE

San José de Chiquitos

17-49S|60-44W

13:00

SLJE 211300Z 18012KT 8000 NSC 28/20 Q1019 A3009 HR61 FU RWY NML =

SLOR

Oruro

17-57S|67-04W

13:00

SLOR 211300Z 08007KT 9999 FEW015 SCT070 BKN200 08/04 Q1037 A3065 657.9 RERA HR74=

SLRB

Roboré

18-19S|59-45W

13:00

SLRB 211300Z 00000KT 9999 OVC017 25/21 Q1020 A3012 HR78 RWY NML =

SLVG

Valle Grande

18-28S|64-05W

13:00

SLVG 211300Z 15010KT 7000 SCT023 BKN200 16/11 Q1028 A3036 HR67 FU RWY NML=

SLPS

Puerto Suárez

18-58S|57-49W

13:00

SLPS 211300Z 00000KT 9000 FEW015 27/21 Q1016 A3001 HR71 FU=

SLSU

Sucre

19-00S|65-17W

13:00

SLSU 211300Z 08006KT 9999 FEW010 BKN015 13/10 Q1033 A3053 HR81 CI=

SLPO

Potosí

19-32S|65-43W

13:00

SLPO 211300Z 00000KT 9999 FEW017 SCT200 08/05 Q1040 A3071 HR79=

SLAG

Monteagudo

19-49S|63-58W

13:00

SLAG 211300Z 00000KT 9999 BKN070 21/18 Q1025 A3027 HR84 FU RWY CLSD=

SLCA

Camiri

20-00S|63-31W

13:00

SLCA 211300Z 00000KT 9999 FEW033 SCT070 24/18 Q1022 A3018 HR71 FU RWY NML=

SLUY

Uyuni

20-27S|62-52W

13:00

SLUY 211300Z 31003KT 9999 FEW015 BKN200 12/03 Q1036 A3061 660.0 HR640=

SLVM

Villamontes

21-15S|63-24W

13:00

SLVM 211300Z 00000KT 9999 SCT027 BKN070 24/20 Q1019 A3009 HR75=

SLTJ

Tarija

21-33S|64-42W

13:00

SLTJ 211300Z 00000KT 9999 SCT027 SCT200 19/14 Q1025 A3028 HR68=

SLYA

Yacuiba

21-57S|63-39W

13:00

SLYA 211300Z 00000KT 9999 SCT070 24/18 Q1020 A3014 HR70 FU/CI=

SLBJ

Bermejo

22-46S|64-18W

13:00

SLBJ 211300Z 00000KT 9999 FEW013 SCT200 23/20 Q1016 A3000 HR81 FU=